• Join FlightAware (Why Join?)
  • Login
  • US Flag 
01:38AM EST


 

Airport Tracker/Info


-or-


 

Live Flight TrackerFlight Track Log ✈ EJA941 ✈ 01-Jul-2013 ✈ KACK - KTEB

Flight Track Log - Related Links

Times and Time Zones

All times are in EDT time to prevent confusion due to time zone crossing. See the EJA941 flight status page for this flight to view local times or setup timezone preferences in your user account.

Time Position Orientation Groundspeed Altitude Reporting Facility
EDT Latitude Longitude Course Direction KTS MPH feet Rate Location/Type
02:59PM 41.2522 -70.1706 270° West 246 283 4,600  Level Boston Center
03:00PM 41.3033 -70.2267 320° Northwest 252 290 7,400 3,000 Climbing Boston Center
03:01PM 41.3306 -70.3419 287° West 252 290 10,700 2,160 Climbing Boston Center
03:02PM 41.3486 -70.4269 286° West 271 312 11,800 1,500 Climbing Boston Center
03:03PM 41.3867 -70.5808 288° West 333 383 13,700 1,380 Climbing Boston Center
03:04PM 41.4688 -70.8208 304° West  Level FlightAware Approximate
03:05PM 41.5167 -70.9419 270° West  Level FlightAware Approximate
03:05PM 41.4800 -70.8219 297° West 368 423 16,000  Level Boston Center
03:06PM 41.5342 -70.9536 299° West 386 444 16,000  Level Boston Center
03:07PM 41.5856 -71.0803 299° West 396 456 16,000  Level Boston Center
03:08PM 41.6331 -71.2014 298° West 379 436 16,000  Level Boston Center
03:09PM 41.6758 -71.3200 296° West 362 417 16,000  Level Boston Center
03:10PM 41.7186 -71.4417 295° West 361 415 16,000  Level Boston Center
03:12PM 41.8125 -71.7075 295° West 389 448 16,000  Level Boston Center
03:13PM 41.8547 -71.8242 296° West 395 455 16,000  Level Boston Center
03:14PM 41.8928 -71.9464 293° West 371 427 16,000  Level Boston Center
03:15PM 41.9392 -72.0717 296° West 356 410 16,000  Level Boston Center
03:16PM 41.9769 -72.1803 295° West 351 404 16,000  Level Boston Center
03:17PM 42.0231 -72.3144 295° West 356 410 16,000  Level Boston Center
03:18PM 42.0628 -72.4233 296° West 356 410 16,100  Climbing Boston Center
03:19PM 42.1086 -72.5606 294° West 361 415 16,100  Level Boston Center
03:20PM 42.1397 -72.6472 296° West 361 415 16,100  Level Boston Center
03:21PM 42.1558 -72.8097 278° West 338 389 16,100  Level Boston Center
03:22PM 42.1492 -72.9497 266° West 333 383 16,100  Level Boston Center
03:23PM 42.1381 -73.0839 264° West 333 383 16,100  Level Boston Center
03:24PM 42.1311 -73.1958 265° West 333 383 16,100  Level Boston Center
03:25PM 42.1217 -73.3303 265° West 333 383 16,100 -120 Level Boston Center
03:26PM 42.1125 -73.4475 264° West 333 383 15,900 -120 Descending Boston Center
03:27PM 42.1031 -73.5733 264° West 340 391 15,900  Level Boston Center
03:28PM 42.0808 -73.7044 257° West 351 404 15,900  Level Boston Center
03:29PM 42.0356 -73.8181 242° Southwest 352 405 16,000 -120 Climbing Boston Center
03:30PM 41.9839 -73.9483 242° Southwest 361 415 15,700 -600 Descending Boston Center
03:31PM 41.9492 -74.0481 245° Southwest 361 415 14,900 -1,080 Descending Boston Center
03:32PM 41.9058 -74.1556 242° Southwest 319 367 13,600 -1,500 Descending Boston Center
03:33PM 41.8669 -74.2578 243° Southwest 294 338 11,900 -1,320 Descending Boston Center
03:34PM 41.8342 -74.3375 241° Southwest 280 322 11,000 -1,020 Descending Boston Center
03:35PM 41.7992 -74.4369 245° Southwest 280 322 9,900 -1,020 Descending Boston Center
03:36PM 41.7667 -74.5081 239° Southwest 269 310 9,000 -1,020 Descending Boston Center
03:37PM 41.6911 -74.5392 197° South 255 293 7,900 -960 Descending Boston Center
03:38PM 41.6261 -74.5536 189° South 255 293 7,100 -600 Descending Boston Center
03:39PM 41.5550 -74.5650 187° South 248 285 6,800 -600 Descending Boston Center
03:40PM 41.4922 -74.5769 188° South 249 287 6,000 -240 Descending Boston Center
03:42PM 41.3167 -74.6333 194° South 258 297 6,100 -300 Climbing New York TRACON
03:43PM 41.2500 -74.6167 169° South 255 293 5,000 -1,020 Descending New York TRACON
03:44PM 41.1833 -74.5667 151° Southeast 254 292 4,100 -480 Descending New York TRACON
03:45PM 41.1667 -74.4833 105° East 267 307 4,100 -360 Level New York TRACON
03:47PM 41.1167 -74.3333 114° Southeast 245 282 3,100 -360 Descending New York TRACON
03:48PM 41.0833 -74.2333 114° Southeast 243 280 3,100  Level New York TRACON
03:49PM 41.0667 -74.1667 108° East 187 215 3,100 -300 Level New York TRACON
03:50PM 41.0500 -74.1167 114° Southeast 193 222 2,600 -540 Descending New York TRACON
03:51PM 41.0167 -74.0667 131° Southeast 174 200 2,100 -300 Descending New York TRACON
03:52PM 40.9667 -74.0500 166° South 174 200 2,100 -360 Level New York TRACON
03:53PM 40.9167 -74.0500 180° South 134 154 1,400 -720 Descending New York TRACON
03:54PM 40.8833 -74.0500 180° South 124 143 700 -720 Descending New York TRACON
03:56PM 40.8500 -74.0500 150° Southeast  Level FlightAware Approximate